Time;durP1;ratioP1;P1;durP2;ratioP2;P2;SDS_P1;SDS_P2;PMS_P1;PMS_P2;Temp;Humidity;BMP_temperature;BMP_pressure;BME280_temperature;BME280_humidity;BME280_pressure;Samples;Min_cycle;Max_cycle;Signal;HPM_P1;HPM_P2
2022/07/24 00:02:23;;;;;;;11.13;9.82;;;18.60;92.10;;;;;;5030877;28;20212;-81
2022/07/24 00:04:50;;;;;;;10.45;9.45;;;18.60;90.80;;;;;;5030853;28;20209;-81
2022/07/24 00:07:17;;;;;;;11.05;9.05;;;18.60;91.30;;;;;;5031363;28;20199;-82
2022/07/24 00:09:44;;;;;;;10.70;9.70;;;18.60;91.90;;;;;;5031598;28;20225;-81
2022/07/24 00:12:11;;;;;;;12.50;10.75;;;18.60;92.70;;;;;;5030320;28;20549;-78
2022/07/24 00:14:38;;;;;;;12.80;10.27;;;18.60;92.80;;;;;;5031161;28;20207;-77
2022/07/24 00:17:06;;;;;;;10.32;9.23;;;18.60;92.50;;;;;;5031407;28;20195;-77
2022/07/24 00:19:33;;;;;;;12.15;10.95;;;18.60;92.90;;;;;;5032641;28;20211;-78
2022/07/24 00:22:02;;;;;;;12.43;11.10;;;18.60;93.80;;;;;;5034116;28;20609;-77
2022/07/24 00:24:29;;;;;;;10.90;9.68;;;18.50;95.80;;;;;;5035127;28;20201;-76
2022/07/24 00:26:56;;;;;;;15.70;14.00;;;18.50;96.30;;;;;;5034353;28;20198;-76
2022/07/24 00:29:23;;;;;;;12.82;11.73;;;18.50;99.90;;;;;;5033834;28;20203;-79
2022/07/24 00:31:50;;;;;;;12.35;11.00;;;18.50;99.90;;;;;;5034301;28;20214;-80
2022/07/24 00:34:18;;;;;;;17.27;13.50;;;18.50;99.90;;;;;;5035082;28;20545;-76
2022/07/24 00:36:45;;;;;;;15.45;13.85;;;18.50;99.90;;;;;;5033756;28;20213;-78
2022/07/24 00:39:12;;;;;;;14.48;13.07;;;18.50;99.90;;;;;;5034439;28;20202;-76
2022/07/24 00:41:39;;;;;;;15.38;11.80;;;18.50;99.90;;;;;;5034255;28;20490;-78
2022/07/24 00:44:09;;;;;;;16.77;12.18;;;18.50;99.90;;;;;;5034616;28;20199;-78
2022/07/24 00:46:38;;;;;;;15.45;13.27;;;18.50;99.90;;;;;;5033883;28;20364;-77
2022/07/24 00:49:07;;;;;;;13.10;11.45;;;18.50;99.90;;;;;;5034780;28;20471;-81
2022/07/24 00:51:35;;;;;;;13.38;11.50;;;18.60;99.00;;;;;;5034297;28;20301;-79
2022/07/24 00:54:03;;;;;;;13.77;10.57;;;18.60;98.10;;;;;;5033535;28;20210;-79
2022/07/24 00:56:31;;;;;;;12.30;11.10;;;18.60;96.20;;;;;;5033064;28;20198;-75
2022/07/24 00:58:57;;;;;;;12.80;10.05;;;18.70;94.70;;;;;;5034122;28;20252;-80
2022/07/24 01:01:24;;;;;;;12.60;10.73;;;18.60;94.10;;;;;;5030029;28;20214;-76
2022/07/24 01:03:51;;;;;;;13.63;10.50;;;18.60;94.90;;;;;;5025923;28;20225;-77
2022/07/24 01:06:19;;;;;;;11.68;10.02;;;18.60;93.70;;;;;;5019891;28;20290;-76
2022/07/24 01:08:47;;;;;;;9.82;8.93;;;18.60;94.00;;;;;;5014786;28;20203;-81
2022/07/24 01:11:14;;;;;;;10.38;9.18;;;18.60;94.80;;;;;;5014187;28;20211;-76
2022/07/24 01:13:42;;;;;;;10.70;9.63;;;18.60;94.90;;;;;;5016463;28;20217;-76
2022/07/24 01:16:09;;;;;;;9.93;8.88;;;18.60;94.00;;;;;;5029436;28;20206;-77
2022/07/24 01:18:36;;;;;;;11.95;9.57;;;18.60;95.40;;;;;;5028095;28;20257;-81
2022/07/24 01:21:05;;;;;;;10.50;9.02;;;18.60;95.70;;;;;;5031550;28;20195;-78
2022/07/24 01:23:32;;;;;;;10.98;8.80;;;18.60;98.40;;;;;;5028500;28;20535;-77
2022/07/24 01:25:59;;;;;;;10.10;7.82;;;18.60;97.60;;;;;;5020647;28;20227;-80
2022/07/24 01:28:26;;;;;;;13.55;8.95;;;18.60;99.00;;;;;;5031988;28;20301;-79
2022/07/24 01:30:53;;;;;;;12.65;9.82;;;18.60;99.90;;;;;;5033556;28;20232;-76
2022/07/24 01:33:20;;;;;;;9.45;8.55;;;18.60;99.90;;;;;;5033402;28;20494;-77
2022/07/24 01:35:47;;;;;;;14.93;9.10;;;18.60;99.90;;;;;;5016621;28;20211;-76
2022/07/24 01:38:16;;;;;;;11.38;9.23;;;18.60;99.90;;;;;;5013987;28;20210;-76
2022/07/24 01:40:42;;;;;;;12.90;9.15;;;18.60;99.90;;;;;;5013840;28;20223;-78
2022/07/24 01:43:09;;;;;;;14.35;9.07;;;18.60;99.90;;;;;;5014311;28;20206;-77
2022/07/24 01:45:37;;;;;;;10.13;7.75;;;18.60;99.90;;;;;;5031234;28;20218;-76
2022/07/24 01:48:05;;;;;;;11.30;8.10;;;18.60;99.90;;;;;;5033350;28;20195;-75
2022/07/24 01:50:32;;;;;;;8.82;7.85;;;18.60;99.90;;;;;;5032419;28;20206;-79
2022/07/24 01:53:01;;;;;;;13.15;8.95;;;18.50;99.90;;;;;;5032768;28;20309;-75
2022/07/24 01:55:30;;;;;;;9.18;7.55;;;18.60;99.90;;;;;;5031588;28;20199;-77
2022/07/24 01:57:57;;;;;;;10.05;7.82;;;18.60;99.90;;;;;;5033078;28;20191;-77
2022/07/24 02:00:24;;;;;;;15.38;8.60;;;18.60;99.90;;;;;;5032924;28;20306;-75
2022/07/24 02:02:51;;;;;;;10.02;7.13;;;18.60;99.90;;;;;;5032278;28;20663;-77
2022/07/24 02:05:18;;;;;;;13.00;7.40;;;18.60;99.90;;;;;;5033452;28;20266;-76
2022/07/24 02:07:45;;;;;;;9.38;8.27;;;18.50;99.90;;;;;;5032593;28;20594;-76
2022/07/24 02:10:14;;;;;;;9.82;8.05;;;18.60;99.90;;;;;;5032384;28;20202;-75
2022/07/24 02:12:42;;;;;;;12.50;7.55;;;18.50;99.90;;;;;;5033131;28;20233;-78
2022/07/24 02:15:10;;;;;;;9.05;7.03;;;18.50;99.90;;;;;;5032934;28;20499;-77
2022/07/24 02:17:37;;;;;;;8.85;6.53;;;18.50;99.90;;;;;;5033093;28;20269;-75
2022/07/24 02:20:05;;;;;;;8.25;5.93;;;18.50;99.90;;;;;;5031889;28;20283;-80
2022/07/24 02:22:33;;;;;;;10.55;6.85;;;18.50;99.90;;;;;;5032931;28;20201;-78
2022/07/24 02:24:59;;;;;;;10.80;6.63;;;18.50;99.90;;;;;;5032108;28;20206;-77
2022/07/24 02:27:26;;;;;;;9.88;6.90;;;18.50;99.90;;;;;;5026078;28;20203;-77
2022/07/24 02:29:55;;;;;;;9.52;6.47;;;18.50;99.90;;;;;;5012503;28;20261;-79
2022/07/24 02:32:21;;;;;;;7.57;5.90;;;18.50;99.90;;;;;;5012891;28;20226;-78
2022/07/24 02:34:48;;;;;;;9.95;6.53;;;18.40;99.90;;;;;;5012404;28;20506;-77
2022/07/24 02:37:15;;;;;;;8.20;6.10;;;18.50;99.90;;;;;;5012923;28;20207;-76
2022/07/24 02:39:42;;;;;;;7.18;5.68;;;18.40;99.90;;;;;;5013184;28;20518;-79
2022/07/24 02:42:09;;;;;;;7.72;5.75;;;18.40;99.90;;;;;;5011693;28;20242;-77
2022/07/24 02:44:36;;;;;;;8.68;5.75;;;18.40;99.90;;;;;;5028695;28;20213;-78
2022/07/24 02:47:04;;;;;;;10.02;6.18;;;18.40;99.90;;;;;;5032020;28;20225;-76
2022/07/24 02:49:31;;;;;;;8.95;6.22;;;18.40;99.90;;;;;;5031972;28;20199;-79
2022/07/24 02:51:58;;;;;;;9.65;5.57;;;18.40;99.90;;;;;;5032329;28;20226;-77
2022/07/24 02:54:24;;;;;;;13.23;6.35;;;18.40;99.90;;;;;;5025857;28;20285;-80
2022/07/24 02:56:51;;;;;;;9.90;5.32;;;18.40;99.90;;;;;;5022362;28;20206;-78
2022/07/24 02:59:20;;;;;;;8.00;4.50;;;18.40;99.90;;;;;;5022732;28;20199;-80
2022/07/24 03:01:46;;;;;;;8.25;4.63;;;18.40;99.90;;;;;;5019169;28;20302;-78
2022/07/24 03:04:15;;;;;;;7.03;4.60;;;18.40;99.90;;;;;;5021117;28;20775;-77
2022/07/24 03:06:41;;;;;;;7.45;4.63;;;18.40;99.90;;;;;;5024353;28;20218;-80
2022/07/24 03:09:08;;;;;;;5.82;4.97;;;18.40;99.90;;;;;;5017300;28;20289;-76
2022/07/24 03:11:35;;;;;;;8.48;5.22;;;18.40;99.90;;;;;;5028911;28;20313;-81
2022/07/24 03:14:02;;;;;;;6.63;4.78;;;18.40;99.90;;;;;;5030317;28;20203;-75
2022/07/24 03:16:29;;;;;;;7.68;4.40;;;18.40;99.90;;;;;;5026159;28;20214;-79
2022/07/24 03:18:56;;;;;;;7.85;4.38;;;18.40;99.90;;;;;;5011952;28;20247;-80
2022/07/24 03:21:24;;;;;;;8.48;4.80;;;18.40;99.90;;;;;;5012896;28;20199;-77
2022/07/24 03:23:51;;;;;;;9.25;4.70;;;18.40;99.90;;;;;;5019065;28;20213;-78
2022/07/24 03:26:17;;;;;;;6.53;4.65;;;18.40;99.90;;;;;;5031968;28;20205;-78
2022/07/24 03:28:44;;;;;;;8.48;4.50;;;18.40;99.90;;;;;;5031918;28;20457;-82
2022/07/24 03:31:11;;;;;;;10.82;5.75;;;18.30;99.90;;;;;;5029056;28;20198;-81
2022/07/24 03:33:38;;;;;;;11.70;5.28;;;18.30;99.90;;;;;;5032113;28;20202;-78
2022/07/24 03:36:05;;;;;;;7.70;5.47;;;18.30;99.90;;;;;;5032219;28;20206;-78
2022/07/24 03:38:33;;;;;;;9.98;4.57;;;18.20;99.90;;;;;;5030756;28;20349;-79
2022/07/24 03:41:00;;;;;;;10.13;5.50;;;18.20;99.90;;;;;;5012502;28;20238;-81
2022/07/24 03:43:27;;;;;;;11.57;5.97;;;18.10;99.90;;;;;;5012322;28;20195;-79
2022/07/24 03:45:54;;;;;;;6.68;5.63;;;18.10;99.90;;;;;;5022513;28;20199;-79
2022/07/24 03:48:21;;;;;;;9.93;5.80;;;18.10;99.90;;;;;;5032375;28;20537;-81
2022/07/24 03:50:48;;;;;;;6.47;5.00;;;18.10;99.90;;;;;;5031638;28;20203;-79
2022/07/24 03:53:15;;;;;;;6.18;4.75;;;18.00;99.90;;;;;;5031376;28;20229;-80
2022/07/24 03:55:43;;;;;;;7.68;5.65;;;18.00;99.90;;;;;;5034781;28;20195;-80
2022/07/24 03:58:10;;;;;;;6.63;4.70;;;17.90;99.90;;;;;;5035487;28;20203;-77
2022/07/24 04:00:36;;;;;;;9.48;5.75;;;17.90;99.90;;;;;;5034986;28;20195;-80
2022/07/24 04:03:03;;;;;;;9.13;5.35;;;17.90;99.90;;;;;;5036264;28;20201;-80
2022/07/24 04:05:30;;;;;;;7.07;4.95;;;17.90;99.90;;;;;;5034907;28;20211;-80
2022/07/24 04:07:57;;;;;;;7.00;5.07;;;17.90;99.90;;;;;;5035684;28;20518;-80
2022/07/24 04:10:24;;;;;;;10.07;5.60;;;17.90;99.90;;;;;;5035840;28;20187;-80
2022/07/24 04:12:52;;;;;;;9.02;6.05;;;17.80;99.90;;;;;;5035270;28;20313;-81
2022/07/24 04:15:19;;;;;;;12.48;6.35;;;17.80;99.90;;;;;;5035396;28;20203;-80
2022/07/24 04:17:46;;;;;;;9.02;6.25;;;17.80;99.90;;;;;;5035370;28;20912;-79
2022/07/24 04:20:13;;;;;;;10.93;5.47;;;17.80;99.90;;;;;;5034311;28;20209;-81
2022/07/24 04:22:40;;;;;;;6.35;5.07;;;17.80;99.90;;;;;;5034225;28;20289;-80
2022/07/24 04:25:08;;;;;;;8.93;6.07;;;17.80;99.90;;;;;;5035709;28;20199;-80
2022/07/24 04:27:35;;;;;;;8.00;5.47;;;17.80;99.90;;;;;;5034663;28;20206;-80
2022/07/24 04:30:05;;;;;;;9.45;5.80;;;17.80;99.90;;;;;;5035386;28;20532;-80
2022/07/24 04:32:31;;;;;;;7.78;5.93;;;17.80;99.90;;;;;;5034927;28;20553;-80
2022/07/24 04:34:58;;;;;;;7.18;5.45;;;17.80;99.90;;;;;;5034608;28;20643;-80
2022/07/24 04:37:25;;;;;;;7.68;6.32;;;17.80;99.90;;;;;;5034740;28;20595;-80
2022/07/24 04:39:52;;;;;;;6.78;5.88;;;17.80;99.90;;;;;;5035036;28;20205;-79
2022/07/24 04:42:19;;;;;;;10.73;6.60;;;17.80;99.90;;;;;;5034871;28;20215;-80
2022/07/24 04:44:46;;;;;;;9.18;6.28;;;17.80;99.90;;;;;;5034422;28;20544;-79
2022/07/24 04:47:14;;;;;;;7.57;6.45;;;17.90;99.90;;;;;;5035026;28;20491;-80
2022/07/24 04:49:41;;;;;;;7.00;5.53;;;17.90;99.90;;;;;;5034374;28;20221;-80
2022/07/24 04:52:08;;;;;;;7.32;5.50;;;17.90;99.90;;;;;;5034813;28;20222;-80
2022/07/24 04:54:35;;;;;;;7.22;5.40;;;17.90;99.90;;;;;;5034867;28;20205;-80
2022/07/24 04:57:01;;;;;;;6.22;4.93;;;17.90;99.90;;;;;;5033666;28;20202;-79
2022/07/24 04:59:28;;;;;;;8.48;5.90;;;17.90;99.90;;;;;;5034544;28;20206;-79
2022/07/24 05:01:56;;;;;;;6.95;4.90;;;18.00;99.90;;;;;;5033855;28;20221;-79
2022/07/24 05:04:24;;;;;;;7.75;4.80;;;18.00;99.90;;;;;;5034429;28;20210;-80
2022/07/24 05:06:51;;;;;;;10.88;5.43;;;18.10;99.90;;;;;;5033556;28;20208;-81
2022/07/24 05:09:18;;;;;;;7.57;4.90;;;18.10;99.90;;;;;;5034954;28;20214;-79
2022/07/24 05:11:44;;;;;;;7.07;5.07;;;18.20;99.90;;;;;;5033148;28;20614;-76
2022/07/24 05:14:11;;;;;;;10.05;4.70;;;18.30;99.90;;;;;;5033555;28;20277;-79
2022/07/24 05:16:38;;;;;;;9.50;4.75;;;18.40;99.90;;;;;;5034705;28;20203;-75
2022/07/24 05:19:05;;;;;;;10.43;4.70;;;18.40;99.90;;;;;;5035727;28;20230;-76
2022/07/24 05:21:33;;;;;;;9.00;4.55;;;18.50;99.90;;;;;;5034140;28;20207;-76
2022/07/24 05:24:01;;;;;;;8.23;4.63;;;18.60;99.90;;;;;;5033529;28;20199;-78
2022/07/24 05:26:31;;;;;;;7.68;4.90;;;18.70;99.90;;;;;;5034607;28;20202;-78
2022/07/24 05:28:58;;;;;;;7.35;4.65;;;18.70;99.90;;;;;;5034171;28;20195;-80
2022/07/24 05:31:25;;;;;;;5.43;4.20;;;18.80;99.90;;;;;;5033174;28;20525;-80
2022/07/24 05:33:51;;;;;;;6.13;3.83;;;18.80;99.90;;;;;;5034543;28;20214;-80
2022/07/24 05:36:18;;;;;;;5.15;4.00;;;18.90;99.90;;;;;;5034217;28;20206;-78
2022/07/24 05:38:47;;;;;;;6.07;4.05;;;19.00;99.90;;;;;;5033344;28;20594;-80
2022/07/24 05:41:14;;;;;;;6.53;3.60;;;19.10;99.90;;;;;;5033506;28;20234;-79
2022/07/24 05:43:41;;;;;;;4.13;3.72;;;19.30;99.90;;;;;;5034020;28;20286;-78
2022/07/24 05:46:08;;;;;;;5.43;3.50;;;19.50;99.90;;;;;;5033699;28;20206;-79
2022/07/24 05:48:35;;;;;;;5.80;4.03;;;19.70;99.90;;;;;;5033075;28;20214;-79
2022/07/24 05:51:02;;;;;;;5.35;3.17;;;19.90;99.90;;;;;;5033109;28;20292;-77
2022/07/24 05:53:28;;;;;;;5.63;3.60;;;20.10;99.90;;;;;;5032625;28;20225;-77
2022/07/24 05:55:57;;;;;;;5.25;3.20;;;20.20;99.90;;;;;;5033532;28;20206;-79
2022/07/24 05:58:23;;;;;;;5.53;3.35;;;20.30;99.90;;;;;;5032464;28;20606;-80
2022/07/24 06:00:50;;;;;;;4.85;3.42;;;20.30;99.90;;;;;;5033045;28;20234;-78
2022/07/24 06:03:17;;;;;;;5.72;3.13;;;20.30;99.90;;;;;;5033650;28;20202;-78
2022/07/24 06:05:44;;;;;;;6.57;3.30;;;20.30;99.90;;;;;;5032586;28;20202;-78
2022/07/24 06:08:11;;;;;;;5.95;3.13;;;20.30;99.90;;;;;;5032405;28;20206;-78
2022/07/24 06:10:37;;;;;;;3.55;2.90;;;20.30;99.90;;;;;;5033035;28;20810;-78
2022/07/24 06:13:06;;;;;;;4.53;3.00;;;20.30;99.90;;;;;;5031196;28;20226;-78
2022/07/24 06:15:33;;;;;;;4.10;2.78;;;20.30;99.90;;;;;;5032374;28;20203;-78
2022/07/24 06:18:00;;;;;;;3.47;2.92;;;20.40;99.90;;;;;;5030790;28;20264;-80
2022/07/24 06:20:27;;;;;;;3.67;2.67;;;20.30;99.90;;;;;;5032397;28;20202;-78
2022/07/24 06:22:54;;;;;;;4.32;2.85;;;20.40;99.90;;;;;;5031805;28;20481;-76
2022/07/24 06:25:21;;;;;;;4.40;2.80;;;20.50;99.90;;;;;;5032756;28;20203;-78
2022/07/24 06:27:49;;;;;;;3.30;2.70;;;20.50;99.90;;;;;;5028760;28;20214;-75
2022/07/24 06:30:20;;;;;;;4.63;2.47;;;20.70;99.90;;;;;;5031690;28;20221;-74
2022/07/24 06:32:47;;;;;;;5.85;3.08;;;20.80;99.90;;;;;;5013038;28;20212;-80
2022/07/24 06:35:14;;;;;;;3.30;2.50;;;20.90;92.00;;;;;;5021306;28;20206;-77
2022/07/24 06:37:41;;;;;;;4.25;2.55;;;20.90;78.30;;;;;;5020660;28;20595;-81
2022/07/24 06:40:09;;;;;;;3.45;2.63;;;21.00;82.30;;;;;;5021836;28;20207;-79
2022/07/24 06:42:36;;;;;;;5.45;2.58;;;21.00;73.70;;;;;;5019497;28;20196;-80
2022/07/24 06:45:03;;;;;;;3.55;2.63;;;21.10;66.80;;;;;;5023020;28;20538;-79
2022/07/24 06:47:32;;;;;;;4.75;2.53;;;21.30;82.00;;;;;;5028421;28;20215;-77
2022/07/24 06:49:58;;;;;;;4.35;2.85;;;21.70;79.50;;;;;;5020050;28;20211;-80
2022/07/24 06:52:25;;;;;;;5.45;2.20;;;22.10;47.50;;;;;;5020412;28;20198;-79
2022/07/24 06:54:52;;;;;;;5.45;2.53;;;22.50;37.50;;;;;;5012380;28;20211;-79
2022/07/24 06:57:19;;;;;;;4.35;2.45;;;22.90;23.50;;;;;;5020254;28;20297;-80
2022/07/24 06:59:46;;;;;;;4.20;2.45;;;23.20;1.00;;;;;;5026214;28;20604;-89
2022/07/24 07:02:13;;;;;;;4.53;2.30;;;23.20;1.00;;;;;;5021685;28;20815;-74
2022/07/24 07:04:42;;;;;;;4.32;2.20;;;23.20;1.00;;;;;;5023421;28;20588;-75
2022/07/24 07:07:09;;;;;;;3.40;2.33;;;23.10;1.00;;;;;;5012098;28;20205;-75
2022/07/24 07:09:36;;;;;;;4.57;2.40;;;23.10;1.00;;;;;;5017188;28;20206;-75
2022/07/24 07:12:03;;;;;;;3.85;2.20;;;23.10;1.00;;;;;;5011802;28;20298;-75
2022/07/24 07:14:30;;;;;;;7.30;2.70;;;23.30;1.00;;;;;;5027014;28;20309;-77
2022/07/24 07:16:57;;;;;;;4.03;2.17;;;23.60;1.00;;;;;;5030317;28;20470;-76
2022/07/24 07:19:24;;;;;;;5.55;2.42;;;23.80;1.00;;;;;;5031804;28;20241;-81
2022/07/24 07:21:52;;;;;;;4.82;2.50;;;23.80;1.00;;;;;;5032174;28;20281;-77
2022/07/24 07:24:19;;;;;;;5.57;2.42;;;23.70;1.00;;;;;;5030819;28;20198;-74
2022/07/24 07:26:46;;;;;;;5.25;2.30;;;23.60;1.00;;;;;;5031732;28;20214;-76
2022/07/24 07:29:13;;;;;;;5.57;2.40;;;23.90;1.00;;;;;;5033059;28;20704;-77
2022/07/24 07:31:40;;;;;;;3.97;2.17;;;24.30;1.00;;;;;;5035630;28;20209;-77
2022/07/24 07:34:07;;;;;;;5.95;2.45;;;24.70;1.00;;;;;;5035727;28;20321;-76
2022/07/24 07:36:34;;;;;;;4.68;2.00;;;25.00;1.00;;;;;;5036105;28;20500;-78
2022/07/24 07:39:03;;;;;;;3.42;2.25;;;25.30;1.00;;;;;;5034087;28;20595;-76
2022/07/24 07:41:30;;;;;;;3.22;1.90;;;25.60;1.00;;;;;;5035472;28;20228;-75
2022/07/24 07:43:58;;;;;;;4.82;2.20;;;25.80;85.10;;;;;;5036021;28;20289;-77
2022/07/24 07:46:25;;;;;;;2.25;1.80;;;26.00;1.00;;;;;;5034730;28;20491;-77
2022/07/24 07:48:52;;;;;;;3.05;1.98;;;26.40;1.00;;;;;;5036080;28;20202;-76
2022/07/24 07:51:19;;;;;;;3.47;1.80;;;26.60;1.00;;;;;;5034397;28;20199;-80
2022/07/24 07:53:46;;;;;;;3.10;1.88;;;26.80;99.90;;;;;;5015721;28;20227;-82
2022/07/24 07:56:14;;;;;;;2.17;1.60;;;27.10;99.90;;;;;;5016164;28;20201;-76
2022/07/24 07:58:41;;;;;;;5.10;2.28;;;27.50;1.00;;;;;;5014748;28;20203;-74
2022/07/24 08:01:07;;;;;;;2.53;1.73;;;27.60;1.00;;;;;;5016456;28;20188;-76
2022/07/24 08:03:34;;;;;;;5.68;2.10;;;27.90;1.00;;;;;;5035513;28;20221;-78
2022/07/24 08:06:02;;;;;;;3.28;1.75;;;28.00;1.00;;;;;;5035054;28;20194;-77
2022/07/24 08:08:29;;;;;;;3.95;1.92;;;28.20;1.00;;;;;;5034069;28;20297;-78
2022/07/24 08:10:56;;;;;;;6.22;2.10;;;28.40;99.90;;;;;;5035225;28;20202;-77
2022/07/24 08:13:24;;;;;;;3.58;2.20;;;28.40;99.90;;;;;;5035478;28;20225;-83
2022/07/24 08:15:51;;;;;;;3.00;2.10;;;28.30;99.90;;;;;;5036322;28;20203;-80
2022/07/24 08:18:18;;;;;;;6.70;2.20;;;28.00;99.90;;;;;;5034159;28;20242;-75
2022/07/24 08:20:45;;;;;;;4.25;1.80;;;28.10;99.90;;;;;;5034376;28;20305;-77
2022/07/24 08:23:11;;;;;;;3.85;2.08;;;28.00;99.90;;;;;;5035359;28;20195;-75
2022/07/24 08:25:38;;;;;;;5.70;2.00;;;28.00;99.90;;;;;;5034923;28;20595;-83
2022/07/24 08:28:05;;;;;;;2.25;1.67;;;28.00;99.90;;;;;;5035031;28;20230;-79
2022/07/24 08:30:33;;;;;;;3.28;2.00;;;27.80;99.90;;;;;;5035601;28;20202;-83
2022/07/24 08:33:00;;;;;;;3.72;1.70;;;27.90;99.90;;;;;;5036135;28;20190;-83
2022/07/24 08:35:28;;;;;;;5.07;1.80;;;28.10;99.90;;;;;;5036204;28;20214;-81
2022/07/24 08:37:55;;;;;;;4.07;1.80;;;28.40;99.90;;;;;;5035922;28;20203;-84
2022/07/24 08:40:23;;;;;;;3.42;1.80;;;28.60;99.90;;;;;;5033294;28;20265;-76
2022/07/24 08:42:50;;;;;;;2.85;1.67;;;28.50;99.90;;;;;;5033841;28;20599;-76
2022/07/24 08:45:17;;;;;;;2.90;1.40;;;28.20;99.90;;;;;;5034492;28;20282;-75
2022/07/24 08:47:46;;;;;;;1.95;1.73;;;27.80;99.90;;;;;;5032609;28;20202;-75
2022/07/24 08:50:13;;;;;;;4.68;2.00;;;27.50;99.90;;;;;;5034480;28;20191;-79
2022/07/24 08:52:40;;;;;;;1.98;1.77;;;27.00;99.90;;;;;;5034322;28;20499;-76
2022/07/24 08:55:08;;;;;;;4.43;2.05;;;26.70;99.90;;;;;;5033518;28;20652;-75
2022/07/24 08:57:35;;;;;;;3.60;2.00;;;26.80;99.90;;;;;;5033109;28;20191;-76
2022/07/24 09:00:02;;;;;;;3.60;1.80;;;26.80;99.90;;;;;;5034143;28;20615;-76
2022/07/24 09:02:29;;;;;;;3.10;2.10;;;27.00;99.90;;;;;;5033290;28;20202;-77
2022/07/24 09:05:02;;;;;;;2.78;2.10;;;27.40;99.90;;;;;;5034360;28;20199;-76
2022/07/24 09:07:30;;;;;;;3.83;1.90;;;27.60;99.90;;;;;;5030883;28;20618;-76
2022/07/24 09:10:02;;;;;;;4.18;1.77;;;27.60;99.90;;;;;;5034291;28;20206;-86
2022/07/24 09:12:33;;;;;;;5.03;2.30;;;27.80;99.90;;;;;;5034487;28;20218;-76
2022/07/24 09:15:00;;;;;;;5.32;2.22;;;28.20;99.90;;;;;;5033836;28;20876;-75
2022/07/24 09:17:28;;;;;;;5.90;2.05;;;28.60;99.90;;;;;;5032469;28;20230;-81
2022/07/24 09:19:57;;;;;;;3.47;2.13;;;28.70;99.90;;;;;;5034212;28;20191;-81
2022/07/24 09:22:32;;;;;;;5.32;2.20;;;28.90;99.90;;;;;;5032913;28;20202;-76
2022/07/24 09:25:12;;;;;;;3.20;2.17;;;28.80;99.90;;;;;;5034150;28;20186;-78
2022/07/24 09:27:41;;;;;;;4.32;2.25;;;28.90;99.90;;;;;;5032929;28;20531;-82
2022/07/24 09:30:09;;;;;;;2.17;1.90;;;28.90;99.90;;;;;;5032936;28;20206;-78
2022/07/24 09:32:37;;;;;;;3.42;1.65;;;28.90;99.90;;;;;;5033697;28;20241;-77
2022/07/24 09:35:05;;;;;;;4.13;2.30;;;29.10;99.90;;;;;;5032799;28;20226;-79
2022/07/24 09:37:34;;;;;;;3.03;1.98;;;29.00;99.90;;;;;;5033208;28;20203;-79
2022/07/24 09:40:11;;;;;;;3.85;2.10;;;29.00;99.90;;;;;;5033369;28;20277;-79
2022/07/24 09:42:42;;;;;;;2.80;1.95;;;29.20;99.90;;;;;;5033373;28;20502;-80
2022/07/24 09:45:10;;;;;;;4.32;2.08;;;29.20;99.90;;;;;;5021174;28;20206;-81
2022/07/24 09:47:38;;;;;;;3.35;2.08;;;29.20;99.90;;;;;;5016002;28;20510;-79
2022/07/24 09:50:16;;;;;;;2.10;1.73;;;29.00;99.90;;;;;;5016503;28;20207;-78
2022/07/24 09:52:45;;;;;;;6.28;1.98;;;28.90;99.90;;;;;;5018435;28;20660;-81
2022/07/24 09:55:25;;;;;;;3.63;1.67;;;28.80;99.90;;;;;;5031058;28;20226;-81
2022/07/24 09:57:53;;;;;;;2.83;1.70;;;28.90;98.50;;;;;;5033189;28;20521;-83
2022/07/24 10:00:20;;;;;;;1.70;1.60;;;29.00;96.10;;;;;;5033672;28;20291;-81
2022/07/24 10:02:48;;;;;;;3.33;1.70;;;29.10;95.90;;;;;;5032830;28;20202;-79
2022/07/24 10:05:15;;;;;;;4.85;1.90;;;29.20;94.30;;;;;;5033903;28;20285;-83
2022/07/24 10:07:48;;;;;;;4.20;2.03;;;29.30;92.80;;;;;;5034378;28;20256;-80
2022/07/24 10:10:15;;;;;;;4.70;1.60;;;29.40;93.50;;;;;;5032154;28;20589;-81
2022/07/24 10:12:45;;;;;;;3.92;2.20;;;29.50;92.00;;;;;;5035201;28;20277;-81
2022/07/24 10:15:12;;;;;;;2.50;1.60;;;29.60;90.90;;;;;;5033367;28;20214;-84
2022/07/24 10:18:08;;;;;;;3.08;1.80;;;29.70;92.30;;;;;;5034888;28;20227;-83
2022/07/24 10:20:40;;;;;;;1.90;1.60;;;29.80;90.30;;;;;;5035030;28;20282;-88
2022/07/24 10:23:09;;;;;;;3.28;1.85;;;29.80;85.40;;;;;;5037740;28;20198;-82
2022/07/24 10:25:56;;;;;;;4.45;1.90;;;29.80;84.20;;;;;;5035198;28;20509;-78
2022/07/24 10:28:39;;;;;;;4.30;1.70;;;29.90;87.40;;;;;;5033363;28;20195;-79
2022/07/24 10:31:08;;;;;;;3.55;1.77;;;29.90;83.90;;;;;;5031641;28;20210;-82
2022/07/24 10:33:39;;;;;;;2.40;1.75;;;30.00;84.80;;;;;;5032144;28;20199;-81
2022/07/24 10:36:15;;;;;;;4.15;2.10;;;30.10;84.10;;;;;;5032950;28;20575;-80
2022/07/24 10:38:51;;;;;;;2.22;1.38;;;30.10;83.70;;;;;;5032178;28;20277;-80
2022/07/24 10:41:24;;;;;;;3.80;1.58;;;30.20;82.80;;;;;;5032300;28;20226;-78
2022/07/24 10:44:12;;;;;;;3.45;1.65;;;30.10;81.60;;;;;;5030874;28;20190;-78
2022/07/24 10:46:57;;;;;;;3.17;1.40;;;30.10;80.00;;;;;;5032433;28;20183;-82
2022/07/24 10:49:45;;;;;;;2.50;1.70;;;30.10;81.10;;;;;;5032395;28;20198;-75
2022/07/24 10:52:36;;;;;;;3.13;1.90;;;29.80;75.80;;;;;;5031688;28;20249;-76
2022/07/24 10:55:30;;;;;;;2.38;1.80;;;29.80;93.00;;;;;;5028343;28;20230;-75
2022/07/24 10:58:00;;;;;;;3.65;1.75;;;29.80;74.50;;;;;;5031256;28;20198;-77
2022/07/24 11:00:32;;;;;;;4.95;2.20;;;30.00;75.30;;;;;;5030882;28;20248;-76
2022/07/24 11:03:03;;;;;;;4.85;2.58;;;30.00;75.10;;;;;;5030612;28;20854;-77
2022/07/24 11:05:33;;;;;;;3.35;2.20;;;30.30;79.30;;;;;;5031150;28;20285;-77
2022/07/24 11:08:29;;;;;;;5.35;2.10;;;30.50;80.10;;;;;;5032153;28;20210;-79
2022/07/24 11:11:01;;;;;;;2.90;2.13;;;30.80;77.00;;;;;;5031961;28;20202;-77
2022/07/24 11:13:45;;;;;;;3.88;2.17;;;30.70;76.20;;;;;;5031552;28;20206;-83
2022/07/24 11:16:30;;;;;;;3.35;2.10;;;30.80;76.40;;;;;;5032203;28;20595;-82
2022/07/24 11:19:26;;;;;;;2.05;1.95;;;30.90;73.70;;;;;;5012150;28;20234;-82
2022/07/24 11:22:04;;;;;;;3.80;2.15;;;31.10;75.30;;;;;;5011889;28;20245;-80
2022/07/24 11:24:30;;;;;;;5.68;2.20;;;31.20;76.20;;;;;;5011988;28;20195;-82
2022/07/24 11:27:06;;;;;;;5.03;2.28;;;31.30;72.10;;;;;;5025843;28;20202;-79
2022/07/24 11:29:35;;;;;;;3.35;1.88;;;31.30;70.90;;;;;;5031844;28;20488;-86
2022/07/24 11:32:03;;;;;;;5.25;2.22;;;31.20;70.40;;;;;;5032953;28;20190;-80
2022/07/24 11:34:31;;;;;;;1.80;1.60;;;31.20;70.60;;;;;;5031236;28;20228;-77
2022/07/24 11:37:00;;;;;;;4.75;1.92;;;31.10;68.20;;;;;;5031129;28;20191;-80
2022/07/24 11:39:29;;;;;;;3.17;2.17;;;31.20;69.30;;;;;;5031790;28;20591;-78
2022/07/24 11:41:59;;;;;;;2.25;1.65;;;31.30;68.80;;;;;;5031700;28;20281;-84
2022/07/24 11:44:29;;;;;;;1.80;1.50;;;31.40;68.70;;;;;;5022668;28;20510;-89
2022/07/24 11:46:57;;;;;;;3.15;1.48;;;31.30;65.70;;;;;;5024677;28;20226;-85
2022/07/24 11:49:25;;;;;;;1.90;1.50;;;31.30;64.20;;;;;;5027127;28;20526;-84
2022/07/24 11:51:54;;;;;;;2.63;1.70;;;31.20;63.10;;;;;;5036032;28;20204;-84
2022/07/24 11:54:26;;;;;;;1.90;1.67;;;30.90;60.10;;;;;;5028795;28;20215;-80
2022/07/24 11:56:54;;;;;;;2.33;1.73;;;30.80;58.60;;;;;;5022899;28;20210;-78
2022/07/24 11:59:30;;;;;;;2.80;1.65;;;30.70;58.40;;;;;;5012406;28;20214;-82
2022/07/24 12:02:03;;;;;;;3.22;1.73;;;30.80;59.10;;;;;;5014483;28;20600;-81
2022/07/24 12:04:30;;;;;;;2.78;1.52;;;30.80;57.80;;;;;;5028540;28;20612;-78
2022/07/24 12:06:57;;;;;;;2.15;1.65;;;30.90;57.20;;;;;;5029315;28;20205;-79
2022/07/24 12:09:24;;;;;;;3.28;1.35;;;30.90;58.00;;;;;;5031333;28;20206;-79
2022/07/24 12:11:51;;;;;;;4.80;1.70;;;31.10;57.60;;;;;;5030083;28;20289;-79
2022/07/24 12:14:19;;;;;;;5.63;1.95;;;31.20;66.20;;;;;;5031438;28;20219;-77
2022/07/24 12:16:53;;;;;;;2.55;1.63;;;31.20;55.70;;;;;;5034552;28;20203;-78
2022/07/24 12:19:22;;;;;;;2.00;1.80;;;31.20;54.90;;;;;;5033187;28;20689;-78
2022/07/24 12:21:52;;;;;;;5.10;2.00;;;31.30;54.80;;;;;;5037886;22;20241;-76
2022/07/24 12:24:21;;;;;;;2.78;1.80;;;31.20;53.30;;;;;;5016470;28;20203;-78
2022/07/24 12:26:52;;;;;;;3.22;2.00;;;31.20;54.10;;;;;;5029909;28;20237;-79
2022/07/24 12:29:19;;;;;;;4.20;2.40;;;31.30;53.60;;;;;;5031608;28;20207;-79
2022/07/24 12:31:49;;;;;;;2.47;2.20;;;31.30;53.90;;;;;;5022986;28;20207;-80
2022/07/24 12:34:17;;;;;;;2.78;2.30;;;31.30;53.50;;;;;;5024894;28;20301;-78
2022/07/24 12:36:44;;;;;;;3.28;2.15;;;31.30;52.70;;;;;;5018842;28;20207;-79
2022/07/24 12:39:13;;;;;;;3.63;2.30;;;31.30;52.60;;;;;;5020063;28;20235;-78
2022/07/24 12:41:45;;;;;;;2.92;2.20;;;31.30;51.80;;;;;;5014762;28;20647;-90
2022/07/24 12:44:12;;;;;;;3.83;2.63;;;31.30;51.50;;;;;;5015753;28;20207;-81
2022/07/24 12:46:42;;;;;;;2.10;1.90;;;31.40;52.20;;;;;;5014900;28;20226;-81
2022/07/24 12:49:12;;;;;;;3.90;2.25;;;31.50;52.00;;;;;;5028884;28;20698;-87
2022/07/24 12:51:47;;;;;;;4.32;2.03;;;31.60;52.20;;;;;;5034744;28;20183;-84
2022/07/24 12:54:17;;;;;;;3.03;2.00;;;31.70;52.30;;;;;;5026685;28;20210;-84